createdAt,value
2016-12-30T00:00:47.754Z,-39
2016-12-30T00:01:47.770Z,-39
2016-12-30T00:02:47.748Z,-39
2016-12-30T00:03:47.774Z,-39
2016-12-30T00:04:47.732Z,-40
2016-12-30T00:05:47.827Z,-39
2016-12-30T00:06:47.743Z,-39
2016-12-30T00:07:47.810Z,-39
2016-12-30T00:08:47.774Z,-39
2016-12-30T00:09:47.755Z,-40
2016-12-30T00:10:47.772Z,-39
2016-12-30T00:11:55.737Z,-39
2016-12-30T00:12:48.325Z,-39
2016-12-30T00:13:47.761Z,-38
2016-12-30T00:14:47.773Z,-38
2016-12-30T00:15:47.789Z,-38
2016-12-30T00:16:47.782Z,-38
2016-12-30T00:17:47.803Z,-38
2016-12-30T00:18:47.829Z,-40
2016-12-30T00:19:47.787Z,-40
2016-12-30T00:20:47.810Z,-40
2016-12-30T00:21:47.820Z,-39
2016-12-30T00:22:47.797Z,-39
2016-12-30T00:23:47.846Z,-39
2016-12-30T00:24:47.785Z,-39
2016-12-30T00:25:47.774Z,-39
2016-12-30T00:26:47.765Z,-40
2016-12-30T00:27:47.766Z,-39
2016-12-30T00:28:47.808Z,-39
2016-12-30T00:29:47.771Z,-40
2016-12-30T00:30:47.953Z,-41
2016-12-30T00:31:47.785Z,-39
2016-12-30T00:32:47.790Z,-40
2016-12-30T00:33:47.785Z,-39
2016-12-30T00:34:47.775Z,-40
2016-12-30T00:35:47.778Z,-40
2016-12-30T00:36:47.784Z,-40
2016-12-30T00:37:47.790Z,-40
2016-12-30T00:38:47.797Z,-39
2016-12-30T00:39:47.789Z,-40
2016-12-30T00:40:47.779Z,-39
2016-12-30T00:41:47.787Z,-40
2016-12-30T00:42:47.782Z,-39
2016-12-30T00:43:47.835Z,-39
2016-12-30T00:44:47.791Z,-40
2016-12-30T00:45:47.777Z,-39
2016-12-30T00:46:47.780Z,-39
2016-12-30T00:47:47.801Z,-39
2016-12-30T00:48:47.790Z,-40
2016-12-30T00:49:47.816Z,-40
2016-12-30T00:50:47.789Z,-40
2016-12-30T00:51:47.801Z,-39
2016-12-30T00:52:47.807Z,-40
2016-12-30T00:53:47.809Z,-40
2016-12-30T00:54:47.802Z,-39
2016-12-30T00:55:47.808Z,-40
2016-12-30T00:56:47.814Z,-40
2016-12-30T00:57:47.811Z,-40
2016-12-30T00:58:47.790Z,-40
2016-12-30T00:59:47.807Z,-40
2016-12-30T01:00:47.807Z,-40
2016-12-30T01:01:47.795Z,-40
2016-12-30T01:02:47.832Z,-40
2016-12-30T01:03:47.827Z,-40
2016-12-30T01:04:47.807Z,-40
2016-12-30T01:05:47.815Z,-40
2016-12-30T01:06:47.798Z,-40
2016-12-30T01:07:47.820Z,-40
2016-12-30T01:08:47.820Z,-39
2016-12-30T01:09:47.815Z,-39
2016-12-30T01:10:47.826Z,-39
2016-12-30T01:11:47.813Z,-39
2016-12-30T01:12:47.819Z,-39
2016-12-30T01:13:47.807Z,-40
2016-12-30T01:14:47.831Z,-39
2016-12-30T01:15:47.853Z,-40
2016-12-30T01:16:47.803Z,-40
2016-12-30T01:17:47.809Z,-39
2016-12-30T01:18:47.816Z,-39
2016-12-30T01:19:47.824Z,-39
2016-12-30T01:20:47.833Z,-40
2016-12-30T01:21:47.822Z,-40
2016-12-30T01:22:47.829Z,-40
2016-12-30T01:23:47.853Z,-39
2016-12-30T01:24:47.889Z,-39
2016-12-30T01:25:47.820Z,-39
2016-12-30T01:26:47.842Z,-40
2016-12-30T01:27:47.850Z,-40
2016-12-30T01:28:47.839Z,-40
2016-12-30T01:29:47.833Z,-40
2016-12-30T01:30:47.826Z,-39
2016-12-30T01:31:47.831Z,-40
2016-12-30T01:32:47.838Z,-39
2016-12-30T01:33:47.865Z,-40
2016-12-30T01:34:47.854Z,-40
2016-12-30T01:35:47.855Z,-40
2016-12-30T01:36:47.852Z,-40
2016-12-30T01:37:47.854Z,-40
2016-12-30T01:38:47.853Z,-40
2016-12-30T01:39:47.831Z,-40
2016-12-30T01:40:47.866Z,-40
2016-12-30T01:41:47.858Z,-40
2016-12-30T01:42:47.835Z,-40
2016-12-30T01:43:47.842Z,-40
2016-12-30T01:44:47.843Z,-40
2016-12-30T01:45:47.851Z,-40
2016-12-30T01:46:47.849Z,-40
2016-12-30T01:47:47.858Z,-40
2016-12-30T01:48:47.835Z,-40
2016-12-30T01:49:47.841Z,-39
2016-12-30T01:50:47.864Z,-40
2016-12-30T01:51:47.845Z,-40
2016-12-30T01:52:47.841Z,-40
2016-12-30T01:53:47.851Z,-39
2016-12-30T01:54:47.847Z,-40
2016-12-30T01:55:47.848Z,-39
2016-12-30T01:56:47.847Z,-40
2016-12-30T01:57:47.886Z,-40
2016-12-30T01:58:47.836Z,-40
2016-12-30T01:59:47.856Z,-40
2016-12-30T02:00:47.873Z,-40
2016-12-30T02:01:47.868Z,-40
2016-12-30T02:02:47.871Z,-40
2016-12-30T02:03:47.871Z,-40
2016-12-30T02:04:47.878Z,-40
2016-12-30T02:05:47.862Z,-40
2016-12-30T02:06:47.883Z,-40
2016-12-30T02:07:47.859Z,-40
2016-12-30T02:08:47.861Z,-40
2016-12-30T02:09:47.870Z,-40
2016-12-30T02:10:47.876Z,-40
2016-12-30T02:11:47.883Z,-39
2016-12-30T02:12:47.874Z,-40
2016-12-30T02:13:47.876Z,-40
2016-12-30T02:14:47.872Z,-40
2016-12-30T02:15:47.864Z,-40
2016-12-30T02:16:47.870Z,-40
2016-12-30T02:17:47.879Z,-40
2016-12-30T02:18:47.875Z,-39
2016-12-30T02:19:47.874Z,-40
2016-12-30T02:20:47.882Z,-40
2016-12-30T02:21:47.902Z,-40
2016-12-30T02:22:47.882Z,-40
2016-12-30T02:23:47.859Z,-40
2016-12-30T02:24:47.918Z,-40
2016-12-30T02:25:47.872Z,-40
2016-12-30T02:26:47.879Z,-40
2016-12-30T02:27:47.900Z,-40
2016-12-30T02:28:47.893Z,-40
2016-12-30T02:29:47.886Z,-40
2016-12-30T02:30:47.878Z,-40
2016-12-30T02:31:47.928Z,-40
2016-12-30T02:32:47.884Z,-40
2016-12-30T02:33:47.888Z,-40
2016-12-30T02:34:47.883Z,-40
2016-12-30T02:35:47.916Z,-40
2016-12-30T02:36:47.907Z,-40
2016-12-30T02:37:47.888Z,-40
2016-12-30T02:38:47.891Z,-40
2016-12-30T02:39:47.903Z,-40
2016-12-30T02:40:47.888Z,-40
2016-12-30T02:41:47.896Z,-39
2016-12-30T02:42:47.901Z,-40
2016-12-30T02:43:47.892Z,-39
2016-12-30T02:44:47.900Z,-40
2016-12-30T02:45:47.906Z,-39
2016-12-30T02:46:47.891Z,-40
2016-12-30T02:47:47.899Z,-39
2016-12-30T02:48:47.898Z,-40
2016-12-30T02:49:47.905Z,-40
2016-12-30T02:50:47.898Z,-40
2016-12-30T02:51:47.899Z,-39
2016-12-30T02:52:47.908Z,-39
2016-12-30T02:53:47.911Z,-39
2016-12-30T02:54:47.911Z,-40
2016-12-30T02:55:47.912Z,-40
2016-12-30T02:56:47.915Z,-39
2016-12-30T02:57:47.910Z,-40
2016-12-30T02:58:47.925Z,-40
2016-12-30T02:59:47.910Z,-39
2016-12-30T03:00:47.917Z,-40
2016-12-30T03:01:47.910Z,-40
2016-12-30T03:02:47.925Z,-40
2016-12-30T03:03:47.924Z,-40
2016-12-30T03:04:47.922Z,-40
2016-12-30T03:05:47.928Z,-40
2016-12-30T03:06:47.929Z,-40
2016-12-30T03:07:47.917Z,-40
2016-12-30T03:08:47.934Z,-40
2016-12-30T03:09:47.929Z,-39
2016-12-30T03:10:47.924Z,-40
2016-12-30T03:11:47.930Z,-39
2016-12-30T03:12:47.935Z,-40
2016-12-30T03:13:47.928Z,-39
2016-12-30T03:14:47.937Z,-39
2016-12-30T03:15:47.924Z,-39
2016-12-30T03:16:47.934Z,-39
2016-12-30T03:17:47.926Z,-39
2016-12-30T03:18:47.936Z,-40
2016-12-30T03:19:47.927Z,-40
2016-12-30T03:20:47.930Z,-39
2016-12-30T03:21:47.933Z,-40
2016-12-30T03:22:47.934Z,-39
2016-12-30T03:23:47.954Z,-39
2016-12-30T03:24:47.956Z,-40
2016-12-30T03:25:47.953Z,-39
2016-12-30T03:26:47.941Z,-39
2016-12-30T03:27:47.938Z,-40
2016-12-30T03:28:47.931Z,-39
2016-12-30T03:29:47.950Z,-39
2016-12-30T03:30:47.957Z,-39
2016-12-30T03:31:47.939Z,-39
2016-12-30T03:32:47.968Z,-39
2016-12-30T03:33:47.952Z,-39
2016-12-30T03:34:47.952Z,-39
2016-12-30T03:35:47.949Z,-38
2016-12-30T03:36:47.942Z,-39
2016-12-30T03:37:47.945Z,-40
2016-12-30T03:38:47.963Z,-40
2016-12-30T03:39:47.971Z,-40
2016-12-30T03:40:47.951Z,-39
2016-12-30T03:41:47.957Z,-39
2016-12-30T03:42:47.948Z,-39
2016-12-30T03:43:47.954Z,-39
2016-12-30T03:44:47.948Z,-39
2016-12-30T03:45:47.962Z,-39
2016-12-30T03:46:48.006Z,-39
2016-12-30T03:47:47.963Z,-39
2016-12-30T03:48:47.970Z,-39
2016-12-30T03:49:47.977Z,-39
2016-12-30T03:50:47.969Z,-40
2016-12-30T03:51:47.970Z,-39
2016-12-30T03:52:47.967Z,-40
2016-12-30T03:53:47.968Z,-40
2016-12-30T03:54:47.967Z,-40
2016-12-30T03:55:48.012Z,-39
2016-12-30T03:56:47.975Z,-39
2016-12-30T03:57:47.977Z,-40
2016-12-30T03:58:47.999Z,-40
2016-12-30T03:59:47.990Z,-40
2016-12-30T04:00:47.972Z,-40
2016-12-30T04:01:47.983Z,-40
2016-12-30T04:02:47.969Z,-40
2016-12-30T04:03:47.991Z,-40
2016-12-30T04:04:47.986Z,-40
2016-12-30T04:05:47.982Z,-40
2016-12-30T04:06:47.998Z,-40
2016-12-30T04:07:47.982Z,-40
2016-12-30T04:08:48.001Z,-40
2016-12-30T04:09:47.995Z,-40
2016-12-30T04:10:47.987Z,-40
2016-12-30T04:11:48.000Z,-40
2016-12-30T04:12:47.985Z,-40
2016-12-30T04:13:47.979Z,-39
2016-12-30T04:14:47.977Z,-39
2016-12-30T04:15:47.984Z,-39
2016-12-30T04:16:48.597Z,-39
2016-12-30T04:17:47.990Z,-39
2016-12-30T04:18:48.025Z,-39
2016-12-30T04:19:47.991Z,-40
2016-12-30T04:20:47.982Z,-39
2016-12-30T04:21:47.985Z,-39
2016-12-30T04:22:47.992Z,-39
2016-12-30T04:23:47.988Z,-40
2016-12-30T04:24:48.020Z,-39
2016-12-30T04:25:47.985Z,-39
2016-12-30T04:26:48.000Z,-40
2016-12-30T04:27:48.004Z,-40
2016-12-30T04:28:47.996Z,-40
2016-12-30T04:29:48.002Z,-40
2016-12-30T04:30:48.023Z,-39
2016-12-30T04:31:48.000Z,-40
2016-12-30T04:32:48.007Z,-40
2016-12-30T04:33:48.043Z,-40
2016-12-30T04:34:48.005Z,-40
2016-12-30T04:35:48.011Z,-39
2016-12-30T04:36:48.004Z,-39
2016-12-30T04:37:48.009Z,-39
2016-12-30T04:38:48.045Z,-39
2016-12-30T04:39:48.009Z,-39
2016-12-30T04:40:48.007Z,-39
2016-12-30T04:41:48.032Z,-39
2016-12-30T04:42:48.015Z,-39
2016-12-30T04:43:48.009Z,-39
2016-12-30T04:44:48.053Z,-39
2016-12-30T04:45:48.021Z,-39
2016-12-30T04:46:48.029Z,-39
2016-12-30T04:47:48.015Z,-39
2016-12-30T04:48:48.021Z,-39
2016-12-30T04:49:48.028Z,-39
2016-12-30T04:50:48.023Z,-40
2016-12-30T04:51:48.024Z,-39
2016-12-30T04:52:48.035Z,-38
2016-12-30T04:53:48.032Z,-39
2016-12-30T04:54:48.020Z,-39
2016-12-30T04:55:48.023Z,-39
2016-12-30T04:56:48.032Z,-39
2016-12-30T04:57:48.024Z,-39
2016-12-30T04:58:48.025Z,-39
2016-12-30T04:59:48.037Z,-40
2016-12-30T05:00:48.037Z,-40
2016-12-30T05:01:48.024Z,-40
2016-12-30T05:02:48.028Z,-40
2016-12-30T05:03:48.035Z,-39
2016-12-30T05:04:48.033Z,-39
2016-12-30T05:05:48.054Z,-39
2016-12-30T05:06:48.041Z,-39
2016-12-30T05:07:48.065Z,-39
2016-12-30T05:08:48.039Z,-39
2016-12-30T05:09:48.062Z,-38
2016-12-30T05:10:48.068Z,-39
2016-12-30T05:11:48.028Z,-40
2016-12-30T05:12:48.060Z,-39
2016-12-30T05:13:48.035Z,-39
2016-12-30T05:14:48.059Z,-40
2016-12-30T05:15:48.059Z,-40
2016-12-30T05:16:48.058Z,-39
2016-12-30T05:17:48.054Z,-39
2016-12-30T05:18:48.070Z,-39
2016-12-30T05:19:48.041Z,-39
2016-12-30T05:20:48.058Z,-39
2016-12-30T05:21:48.070Z,-40
2016-12-30T05:22:48.063Z,-39
2016-12-30T05:23:48.069Z,-40
2016-12-30T05:24:48.038Z,-40
2016-12-30T05:25:48.054Z,-39
2016-12-30T05:26:48.069Z,-39
2016-12-30T05:27:48.061Z,-39
2016-12-30T05:28:48.045Z,-39
2016-12-30T05:29:48.053Z,-40
2016-12-30T05:30:48.074Z,-39
2016-12-30T05:31:48.066Z,-40
2016-12-30T05:32:48.064Z,-39
2016-12-30T05:33:48.071Z,-39
2016-12-30T05:34:48.077Z,-40
2016-12-30T05:35:48.069Z,-40
2016-12-30T05:36:48.069Z,-40
2016-12-30T05:37:48.066Z,-40
2016-12-30T05:38:48.069Z,-40
2016-12-30T05:39:48.060Z,-40
2016-12-30T05:40:48.084Z,-40
2016-12-30T05:41:48.063Z,-39
2016-12-30T05:42:48.084Z,-39
2016-12-30T05:43:48.063Z,-39
2016-12-30T05:44:48.090Z,-39
2016-12-30T05:45:48.077Z,-39
2016-12-30T05:46:48.074Z,-39
2016-12-30T05:47:48.080Z,-40
2016-12-30T05:48:48.635Z,-41
2016-12-30T05:49:48.075Z,-40
2016-12-30T05:50:48.083Z,-40
2016-12-30T05:51:48.081Z,-40
2016-12-30T05:52:48.096Z,-40
2016-12-30T05:53:48.095Z,-39
2016-12-30T05:54:48.085Z,-39
2016-12-30T05:55:48.092Z,-39
2016-12-30T05:56:48.093Z,-39
2016-12-30T05:57:48.126Z,-39
2016-12-30T05:58:48.096Z,-39
2016-12-30T05:59:48.089Z,-39
2016-12-30T06:00:48.113Z,-38
2016-12-30T06:01:48.087Z,-39
2016-12-30T06:02:48.099Z,-39
2016-12-30T06:03:48.087Z,-39
2016-12-30T06:04:48.094Z,-39
2016-12-30T06:05:48.103Z,-39
2016-12-30T06:06:48.119Z,-39
2016-12-30T06:07:48.115Z,-39
2016-12-30T06:08:48.104Z,-40
2016-12-30T06:09:48.110Z,-39
2016-12-30T06:10:48.104Z,-38
2016-12-30T06:11:48.098Z,-39
2016-12-30T06:12:48.121Z,-39
2016-12-30T06:13:48.113Z,-39
2016-12-30T06:14:48.117Z,-38
2016-12-30T06:15:48.106Z,-39
2016-12-30T06:16:48.101Z,-38
2016-12-30T06:17:48.107Z,-38
2016-12-30T06:18:48.114Z,-39
2016-12-30T06:19:48.113Z,-40
2016-12-30T06:20:48.112Z,-39
2016-12-30T06:21:48.113Z,-40
2016-12-30T06:22:48.124Z,-40
2016-12-30T06:23:48.121Z,-39
2016-12-30T06:24:48.117Z,-39
2016-12-30T06:25:48.129Z,-40
2016-12-30T06:26:48.111Z,-40
2016-12-30T06:27:48.122Z,-39
2016-12-30T06:28:48.127Z,-40
2016-12-30T06:29:48.132Z,-39
2016-12-30T06:30:48.125Z,-39
2016-12-30T06:31:48.118Z,-39
2016-12-30T06:32:48.151Z,-39
2016-12-30T06:33:48.116Z,-39
2016-12-30T06:34:48.125Z,-39
2016-12-30T06:35:48.114Z,-40
2016-12-30T06:36:48.124Z,-39
2016-12-30T06:37:48.130Z,-40
2016-12-30T06:38:48.148Z,-39
2016-12-30T06:39:48.139Z,-39
2016-12-30T06:40:48.132Z,-39
2016-12-30T06:41:48.125Z,-40
2016-12-30T06:42:48.150Z,-39
2016-12-30T06:43:48.139Z,-40
2016-12-30T06:44:48.125Z,-40
2016-12-30T06:45:48.127Z,-40
2016-12-30T06:46:48.143Z,-40
2016-12-30T06:47:48.143Z,-39
2016-12-30T06:48:48.141Z,-40
2016-12-30T06:49:48.188Z,-40
2016-12-30T06:50:48.160Z,-40
2016-12-30T06:51:48.139Z,-39
2016-12-30T06:52:48.158Z,-40
2016-12-30T06:53:48.147Z,-40
2016-12-30T06:54:48.150Z,-40
2016-12-30T06:55:48.171Z,-40
2016-12-30T06:56:48.157Z,-39
2016-12-30T06:57:48.165Z,-40
2016-12-30T06:58:48.164Z,-39
2016-12-30T06:59:48.141Z,-39
2016-12-30T07:00:48.156Z,-40
2016-12-30T07:01:48.142Z,-39
2016-12-30T07:02:48.145Z,-39
2016-12-30T07:03:48.148Z,-39
2016-12-30T07:04:48.154Z,-40
2016-12-30T07:05:48.153Z,-39
2016-12-30T07:06:48.155Z,-40
2016-12-30T07:07:48.161Z,-40
2016-12-30T07:08:48.159Z,-39
2016-12-30T07:09:48.165Z,-39
2016-12-30T07:10:48.161Z,-39
2016-12-30T07:11:48.158Z,-43
2016-12-30T07:12:48.165Z,-40
2016-12-30T07:13:48.160Z,-39
2016-12-30T07:14:48.167Z,-39
2016-12-30T07:15:48.173Z,-38
2016-12-30T07:16:48.166Z,-39
2016-12-30T07:17:48.160Z,-39
2016-12-30T07:18:48.171Z,-39
2016-12-30T07:19:48.173Z,-40
2016-12-30T07:20:48.171Z,-40
2016-12-30T07:21:48.177Z,-39
2016-12-30T07:22:48.168Z,-39
2016-12-30T07:23:48.179Z,-38
2016-12-30T07:24:48.154Z,-39
2016-12-30T07:25:48.180Z,-39
2016-12-30T07:26:48.181Z,-39
2016-12-30T07:27:48.173Z,-40
2016-12-30T07:28:48.165Z,-40
2016-12-30T07:29:48.173Z,-40
2016-12-30T07:30:48.194Z,-40
2016-12-30T07:31:48.199Z,-40
2016-12-30T07:32:48.747Z,-39
2016-12-30T07:33:48.184Z,-39
2016-12-30T07:34:48.191Z,-39
2016-12-30T07:35:48.198Z,-38
2016-12-30T07:36:48.215Z,-39
2016-12-30T07:37:48.194Z,-39
2016-12-30T07:38:48.201Z,-40
2016-12-30T07:39:48.218Z,-40
2016-12-30T07:40:48.199Z,-39
2016-12-30T07:41:48.208Z,-40
2016-12-30T07:42:48.198Z,-39
2016-12-30T07:43:48.191Z,-39
2016-12-30T07:44:48.198Z,-39
2016-12-30T07:45:48.200Z,-40
2016-12-30T07:46:48.203Z,-40
2016-12-30T07:47:48.199Z,-40
2016-12-30T07:48:48.201Z,-40
2016-12-30T07:49:48.192Z,-40
2016-12-30T07:50:48.188Z,-39
2016-12-30T07:51:48.204Z,-40
2016-12-30T07:52:48.219Z,-39
2016-12-30T07:53:48.203Z,-39
2016-12-30T07:54:48.225Z,-39
2016-12-30T07:55:48.201Z,-39
2016-12-30T07:56:48.238Z,-39
2016-12-30T07:57:48.215Z,-39
2016-12-30T07:58:48.267Z,-39
2016-12-30T07:59:48.823Z,-40
2016-12-30T08:00:48.224Z,-39
2016-12-30T08:01:48.227Z,-39
2016-12-30T08:02:48.219Z,-40
2016-12-30T08:03:48.212Z,-40
2016-12-30T08:04:48.208Z,-39
2016-12-30T08:05:48.213Z,-40
2016-12-30T08:06:48.212Z,-39
2016-12-30T08:07:48.218Z,-40
2016-12-30T08:08:48.215Z,-39
2016-12-30T08:09:48.230Z,-38
2016-12-30T08:10:48.231Z,-39
2016-12-30T08:11:48.228Z,-40
2016-12-30T08:12:48.220Z,-40
2016-12-30T08:13:48.215Z,-39
2016-12-30T08:14:48.222Z,-39
2016-12-30T08:15:48.226Z,-39
2016-12-30T08:16:48.234Z,-39
2016-12-30T08:17:48.228Z,-39
2016-12-30T08:18:48.220Z,-39
2016-12-30T08:19:48.241Z,-39
2016-12-30T08:20:48.218Z,-39
2016-12-30T08:21:48.227Z,-39
2016-12-30T08:22:48.242Z,-39
2016-12-30T08:23:48.223Z,-39
2016-12-30T08:24:48.250Z,-39
2016-12-30T08:25:48.229Z,-39
2016-12-30T08:26:48.236Z,-39
2016-12-30T08:27:48.241Z,-38
2016-12-30T08:28:48.231Z,-39
2016-12-30T08:29:48.255Z,-39
2016-12-30T08:30:48.244Z,-39
2016-12-30T08:31:48.254Z,-38
2016-12-30T08:32:48.230Z,-39
2016-12-30T08:33:48.248Z,-39
2016-12-30T08:34:48.245Z,-39
2016-12-30T08:35:48.253Z,-39
2016-12-30T08:36:48.254Z,-39
2016-12-30T08:37:48.247Z,-39
2016-12-30T08:38:48.238Z,-39
2016-12-30T08:39:48.246Z,-39
2016-12-30T08:40:48.254Z,-39
2016-12-30T08:41:48.248Z,-39
2016-12-30T08:42:48.250Z,-39
2016-12-30T08:43:48.247Z,-39
2016-12-30T08:44:48.248Z,-39
2016-12-30T08:45:48.254Z,-39
2016-12-30T08:46:48.256Z,-39
2016-12-30T08:47:48.293Z,-39
2016-12-30T08:48:48.264Z,-39
2016-12-30T08:49:48.278Z,-40
2016-12-30T08:50:48.256Z,-40
2016-12-30T08:51:48.277Z,-40
2016-12-30T08:52:48.298Z,-40
2016-12-30T08:53:48.270Z,-40
2016-12-30T08:54:48.267Z,-39
2016-12-30T08:55:48.274Z,-39
2016-12-30T08:56:48.251Z,-39
2016-12-30T08:57:48.268Z,-40
2016-12-30T08:58:48.261Z,-39
2016-12-30T08:59:48.302Z,-38
2016-12-30T09:00:48.294Z,-39
2016-12-30T09:01:48.292Z,-39
2016-12-30T09:02:48.274Z,-39
2016-12-30T09:03:48.268Z,-39
2016-12-30T09:04:48.274Z,-39
2016-12-30T09:05:48.267Z,-39
2016-12-30T09:06:48.271Z,-38
2016-12-30T09:07:48.286Z,-38
2016-12-30T09:08:48.278Z,-39
2016-12-30T09:09:48.275Z,-40
2016-12-30T09:10:48.276Z,-38
2016-12-30T09:11:48.281Z,-38
2016-12-30T09:12:48.274Z,-39
2016-12-30T09:13:48.306Z,-39
2016-12-30T09:14:48.271Z,-40
2016-12-30T09:15:48.278Z,-39
2016-12-30T09:16:48.289Z,-39
2016-12-30T09:17:48.278Z,-39
2016-12-30T09:18:48.288Z,-40
2016-12-30T09:19:48.295Z,-39
2016-12-30T09:20:48.300Z,-40
2016-12-30T09:21:48.307Z,-39
2016-12-30T09:22:48.286Z,-39
2016-12-30T09:23:48.335Z,-39
2016-12-30T09:24:48.356Z,-39
2016-12-30T09:25:48.318Z,-39
2016-12-30T09:26:48.311Z,-39
2016-12-30T09:27:48.316Z,-39
2016-12-30T09:28:48.322Z,-39
2016-12-30T09:29:48.314Z,-39
2016-12-30T09:30:49.257Z,-39
2016-12-30T09:31:48.309Z,-39
2016-12-30T09:32:48.312Z,-39
2016-12-30T09:33:48.301Z,-39
2016-12-30T09:34:48.307Z,-39
2016-12-30T09:35:48.294Z,-39
2016-12-30T09:36:48.306Z,-39
2016-12-30T09:37:48.312Z,-39
2016-12-30T09:38:48.347Z,-39
2016-12-30T09:39:48.368Z,-39
2016-12-30T09:40:48.291Z,-39
2016-12-30T09:41:48.309Z,-39
2016-12-30T09:42:48.306Z,-39
2016-12-30T09:43:48.308Z,-39
2016-12-30T09:44:48.302Z,-39
2016-12-30T09:45:48.323Z,-39
2016-12-30T09:46:48.306Z,-39
2016-12-30T09:47:48.311Z,-40
2016-12-30T09:48:48.327Z,-39
2016-12-30T09:49:48.305Z,-39
2016-12-30T09:50:48.310Z,-40
2016-12-30T09:51:48.349Z,-39
2016-12-30T09:52:48.328Z,-39
2016-12-30T09:53:48.360Z,-40
2016-12-30T09:54:48.338Z,-40
2016-12-30T09:55:48.338Z,-40
2016-12-30T09:56:48.340Z,-40
2016-12-30T09:57:48.345Z,-40
2016-12-30T09:58:48.327Z,-39
2016-12-30T09:59:48.349Z,-39
2016-12-30T10:00:48.328Z,-39
2016-12-30T10:01:48.328Z,-39
2016-12-30T10:02:48.324Z,-39
2016-12-30T10:03:48.345Z,-40
2016-12-30T10:04:48.324Z,-40
2016-12-30T10:05:48.321Z,-40
2016-12-30T10:06:48.324Z,-39
2016-12-30T10:07:48.329Z,-39
2016-12-30T10:08:48.338Z,-39
2016-12-30T10:09:48.345Z,-39
2016-12-30T10:10:48.363Z,-40
2016-12-30T10:11:48.340Z,-39
2016-12-30T10:12:49.257Z,-39
2016-12-30T10:13:48.328Z,-40
2016-12-30T10:14:48.348Z,-39
2016-12-30T10:15:48.387Z,-39
2016-12-30T10:16:48.345Z,-40
2016-12-30T10:17:48.346Z,-40
2016-12-30T10:18:48.338Z,-40
2016-12-30T10:19:48.361Z,-39
2016-12-30T10:20:48.360Z,-40
2016-12-30T10:21:48.394Z,-39
2016-12-30T10:22:48.350Z,-40
2016-12-30T10:23:48.356Z,-40
2016-12-30T10:24:48.360Z,-39
2016-12-30T10:25:48.352Z,-39
2016-12-30T10:26:48.363Z,-39
2016-12-30T10:27:48.369Z,-39
2016-12-30T10:28:48.345Z,-39
2016-12-30T10:29:48.350Z,-40
2016-12-30T10:30:48.353Z,-39
2016-12-30T10:31:48.356Z,-39
2016-12-30T10:32:48.389Z,-39
2016-12-30T10:33:48.367Z,-40
2016-12-30T10:34:48.402Z,-40
2016-12-30T10:35:48.364Z,-40
2016-12-30T10:36:48.356Z,-39
2016-12-30T10:37:48.359Z,-39
2016-12-30T10:38:48.380Z,-40
2016-12-30T10:39:48.359Z,-39
2016-12-30T10:40:48.366Z,-40
2016-12-30T10:41:48.366Z,-40
2016-12-30T10:42:48.378Z,-40
2016-12-30T10:43:48.381Z,-40
2016-12-30T10:44:48.388Z,-40
2016-12-30T10:45:48.378Z,-40
2016-12-30T10:46:48.399Z,-40
2016-12-30T10:47:48.424Z,-39
2016-12-30T10:48:48.369Z,-39
2016-12-30T10:49:48.362Z,-39
2016-12-30T10:50:48.370Z,-39
2016-12-30T10:51:48.390Z,-39
2016-12-30T10:52:48.365Z,-39
2016-12-30T10:53:48.389Z,-39
2016-12-30T10:54:48.380Z,-39
2016-12-30T10:55:48.398Z,-38
2016-12-30T10:56:48.425Z,-39
2016-12-30T10:57:48.398Z,-39
2016-12-30T10:58:48.419Z,-38
2016-12-30T10:59:48.440Z,-38
2016-12-30T11:00:48.404Z,-39
2016-12-30T11:01:48.390Z,-40
2016-12-30T11:02:48.403Z,-40
2016-12-30T11:03:48.386Z,-40
2016-12-30T11:04:48.386Z,-40
2016-12-30T11:05:48.401Z,-39
2016-12-30T11:06:48.400Z,-39
2016-12-30T11:07:48.416Z,-40
2016-12-30T11:08:48.439Z,-39
2016-12-30T11:09:48.462Z,-38
2016-12-30T11:10:48.478Z,-38
2016-12-30T11:11:48.442Z,-39
2016-12-30T11:12:48.420Z,-39
2016-12-30T11:13:48.413Z,-38
2016-12-30T11:14:48.402Z,-38
2016-12-30T11:15:48.418Z,-38
2016-12-30T11:16:48.425Z,-38
2016-12-30T11:17:48.410Z,-38
2016-12-30T11:18:48.426Z,-38
2016-12-30T11:19:48.401Z,-38
2016-12-30T11:20:48.419Z,-38
2016-12-30T11:21:48.404Z,-38
2016-12-30T11:22:48.456Z,-38
2016-12-30T11:23:48.419Z,-38
2016-12-30T11:24:48.407Z,-38
2016-12-30T11:25:48.416Z,-38
2016-12-30T11:26:48.414Z,-38
2016-12-30T11:27:48.403Z,-38
2016-12-30T11:28:48.405Z,-38
2016-12-30T11:29:48.416Z,-38
2016-12-30T11:30:48.404Z,-38
2016-12-30T11:31:48.416Z,-38
2016-12-30T11:32:48.435Z,-38
2016-12-30T11:33:48.447Z,-38
2016-12-30T11:34:48.479Z,-37
2016-12-30T11:35:48.430Z,-38
2016-12-30T11:36:48.438Z,-38
2016-12-30T11:37:48.442Z,-38
2016-12-30T11:38:48.422Z,-38
2016-12-30T11:39:48.467Z,-37
2016-12-30T11:40:48.435Z,-40
2016-12-30T11:41:48.447Z,-38
2016-12-30T11:42:48.421Z,-39
2016-12-30T11:43:48.414Z,-38
2016-12-30T11:44:48.431Z,-38
2016-12-30T11:45:48.418Z,-38
2016-12-30T11:46:48.425Z,-38
2016-12-30T11:47:48.451Z,-38
2016-12-30T11:48:48.425Z,-38
2016-12-30T11:49:48.497Z,-39
2016-12-30T11:50:48.449Z,-39
2016-12-30T11:51:48.449Z,-39
2016-12-30T11:52:48.441Z,-39
2016-12-30T11:53:48.440Z,-39
2016-12-30T11:54:48.452Z,-39
2016-12-30T11:55:48.451Z,-39
2016-12-30T11:56:48.471Z,-39
2016-12-30T11:57:48.437Z,-39
2016-12-30T11:58:48.441Z,-39
2016-12-30T11:59:48.476Z,-39
2016-12-30T12:00:48.438Z,-38
2016-12-30T12:01:48.435Z,-38
2016-12-30T12:02:48.470Z,-39
2016-12-30T12:03:48.444Z,-38
2016-12-30T12:04:48.481Z,-39
2016-12-30T12:05:48.462Z,-39
2016-12-30T12:07:46.994Z,-39
2016-12-30T12:09:57.303Z,-43
2016-12-30T12:10:57.317Z,-42
2016-12-30T12:11:57.311Z,-43
2016-12-30T12:12:57.328Z,-43
2016-12-30T12:13:57.311Z,-43
2016-12-30T12:14:57.311Z,-42
2016-12-30T12:15:57.307Z,-45
2016-12-30T12:16:57.311Z,-43
2016-12-30T12:17:57.308Z,-44
2016-12-30T12:18:57.330Z,-41
2016-12-30T12:19:57.321Z,-43
2016-12-30T12:20:57.326Z,-43
2016-12-30T12:21:57.304Z,-44
2016-12-30T12:22:57.379Z,-45
2016-12-30T12:23:57.332Z,-44
2016-12-30T12:24:57.336Z,-47
2016-12-30T12:25:57.328Z,-44
2016-12-30T12:26:57.328Z,-44
2016-12-30T12:27:57.320Z,-43
2016-12-30T12:28:57.326Z,-45
2016-12-30T12:29:57.354Z,-44
2016-12-30T12:30:57.339Z,-45
2016-12-30T12:31:58.320Z,-45
2016-12-30T12:32:57.339Z,-46
2016-12-30T12:33:57.326Z,-43
2016-12-30T12:34:57.456Z,-43
2016-12-30T12:35:57.341Z,-44
2016-12-30T12:36:57.338Z,-43
2016-12-30T12:37:57.331Z,-42
2016-12-30T12:38:57.338Z,-43
2016-12-30T12:39:57.385Z,-43
2016-12-30T12:40:57.345Z,-43
2016-12-30T12:41:57.338Z,-43
2016-12-30T12:42:57.331Z,-43
2016-12-30T12:43:57.336Z,-42
2016-12-30T12:44:57.344Z,-44
2016-12-30T12:45:57.322Z,-43
2016-12-30T12:46:57.329Z,-43
2016-12-30T12:47:57.334Z,-43
2016-12-30T12:48:57.339Z,-43
2016-12-30T12:49:57.350Z,-43
2016-12-30T12:50:57.363Z,-40
2016-12-30T12:51:57.358Z,-41
2016-12-30T12:52:57.346Z,-41
2016-12-30T12:53:57.352Z,-41
2016-12-30T12:54:57.361Z,-41
2016-12-30T12:55:57.358Z,-41
2016-12-30T12:56:57.370Z,-41
2016-12-30T12:57:57.363Z,-41
2016-12-30T12:58:57.369Z,-41
2016-12-30T12:59:57.360Z,-39
2016-12-30T13:00:57.353Z,-39
2016-12-30T13:01:57.357Z,-39
2016-12-30T13:02:57.351Z,-39
2016-12-30T13:03:57.359Z,-39
2016-12-30T13:04:57.378Z,-39
2016-12-30T13:05:57.369Z,-39
2016-12-30T13:06:57.366Z,-40
2016-12-30T13:07:57.380Z,-40
2016-12-30T13:08:57.375Z,-40
2016-12-30T13:09:57.411Z,-40
2016-12-30T13:10:57.375Z,-40
2016-12-30T13:11:57.372Z,-40
2016-12-30T13:12:57.403Z,-40
2016-12-30T13:13:57.385Z,-39
2016-12-30T13:14:57.396Z,-40
2016-12-30T13:15:57.380Z,-40
2016-12-30T13:16:57.372Z,-42
2016-12-30T13:17:57.622Z,-42
2016-12-30T13:18:57.361Z,-42
2016-12-30T13:19:57.382Z,-43
2016-12-30T13:20:57.373Z,-43
2016-12-30T13:21:57.368Z,-42
2016-12-30T13:22:57.406Z,-42
2016-12-30T13:23:57.381Z,-41
2016-12-30T13:24:57.380Z,-41
2016-12-30T13:25:57.391Z,-41
2016-12-30T13:26:57.412Z,-41
2016-12-30T13:27:57.375Z,-41
2016-12-30T13:28:57.380Z,-40
2016-12-30T13:29:57.391Z,-40
2016-12-30T13:30:57.396Z,-40
2016-12-30T13:31:57.388Z,-43
2016-12-30T13:32:57.403Z,-42
2016-12-30T13:33:57.404Z,-42
2016-12-30T13:34:57.408Z,-42
2016-12-30T13:35:57.390Z,-42
2016-12-30T13:36:57.392Z,-42
2016-12-30T13:37:57.386Z,-42
2016-12-30T13:38:57.398Z,-42
2016-12-30T13:39:57.442Z,-43
2016-12-30T13:40:57.411Z,-43
2016-12-30T13:41:57.426Z,-43
2016-12-30T13:42:57.426Z,-43
2016-12-30T13:43:57.443Z,-42
2016-12-30T13:44:57.421Z,-41
2016-12-30T13:45:57.421Z,-41
2016-12-30T13:46:57.418Z,-41
2016-12-30T13:47:57.410Z,-41
2016-12-30T13:48:57.433Z,-41